Time;durP1;ratioP1;P1;durP2;ratioP2;P2;SDS_P1;SDS_P2;PMS_P1;PMS_P2;Temp;Humidity;BMP_temperature;BMP_pressure;BME280_temperature;BME280_humidity;BME280_pressure;Samples;Min_cycle;Max_cycle;Signal;HPM_P1;HPM_P2
2021/06/15 00:00:07;;;;;;;;;;;;;;;14.79;74.34;96254.41;1028976;28;19909;-47
2021/06/15 00:00:37;;;;;;;;;;;;;;;14.72;74.25;96259.75;1024717;28;20299;-47
2021/06/15 00:01:07;;;;;;;;;;;;;;;14.74;74.46;96256.88;1030101;28;19932;-46
2021/06/15 00:01:38;;;;;;;;;;;;;;;14.75;74.41;96261.16;1036739;28;19937;-47
2021/06/15 00:02:08;;;;;;;;;;;;;;;14.76;74.50;96257.47;1034170;28;19988;-47
2021/06/15 00:02:38;;;;;;;;;;;;;;;14.75;74.71;96256.66;1040673;28;19920;-48
2021/06/15 00:03:08;;;;;;;;;;;;;;;14.74;74.83;96257.69;1040886;28;20058;-46
2021/06/15 00:03:39;;;;;;;;;;;;;;;14.73;75.03;96253.41;1040240;28;19913;-46
2021/06/15 00:04:09;;;;;;;;;;;;;;;14.69;75.32;96262.03;1040598;28;19960;-47
2021/06/15 00:04:39;;;;;;;;;;;;;;;14.66;75.60;96254.50;1040478;28;19916;-46
2021/06/15 00:05:10;;;;;;;;;;;;;;;14.66;75.76;96257.97;1041671;28;19909;-48
2021/06/15 00:05:40;;;;;;;;;;;;;;;14.65;75.52;96251.06;1044278;28;19913;-49
2021/06/15 00:06:11;;;;;;;;;;;;;;;14.64;76.04;96256.56;1044663;28;20368;-46
2021/06/15 00:06:41;;;;;;;;;;;;;;;14.63;75.67;96252.28;1041110;28;19987;-48
2021/06/15 00:07:11;;;;;;;;;;;;;;;14.62;75.90;96253.31;1042353;28;19909;-46
2021/06/15 00:07:42;;;;;;;;;;;;;;;14.60;75.99;96250.84;1044751;28;19920;-46
2021/06/15 00:08:12;;;;;;;;;;;;;;;14.58;76.64;96255.56;1041146;28;19935;-49
2021/06/15 00:08:42;;;;;;;;;;;;;;;14.57;76.82;96251.28;1041035;28;20415;-46
2021/06/15 00:09:13;;;;;;;;;;;;;;;14.58;76.47;96250.28;1041512;28;19913;-48
2021/06/15 00:09:43;;;;;;;;;;;;;;;14.58;76.73;96248.41;1043453;28;20369;-46
2021/06/15 00:10:15;;;;;;;;;;;;;;;14.58;76.78;96253.72;1040813;28;19931;-47
2021/06/15 00:10:46;;;;;;;;;;;;;;;14.54;77.19;96255.16;1041124;28;20058;-46
2021/06/15 00:11:16;;;;;;;;;;;;;;;14.52;77.31;96256.44;1042864;28;20257;-46
2021/06/15 00:11:46;;;;;;;;;;;;;;;14.52;77.11;96249.28;1040958;28;19921;-46
2021/06/15 00:12:16;;;;;;;;;;;;;;;14.51;77.20;96245.00;1042532;28;19920;-48
2021/06/15 00:12:47;;;;;;;;;;;;;;;14.51;77.32;96250.31;1043222;28;20273;-47
2021/06/15 00:13:17;;;;;;;;;;;;;;;14.52;77.07;96251.13;1045305;28;19911;-48
2021/06/15 00:13:48;;;;;;;;;;;;;;;14.49;77.54;96255.03;1042739;28;19913;-47
2021/06/15 00:14:18;;;;;;;;;;;;;;;14.47;77.37;96245.66;1040835;28;19909;-46
2021/06/15 00:14:48;;;;;;;;;;;;;;;14.51;77.10;96254.81;1040863;28;20388;-47
2021/06/15 00:15:19;;;;;;;;;;;;;;;14.50;77.18;96247.88;1042484;28;20344;-46
2021/06/15 00:15:49;;;;;;;;;;;;;;;14.50;76.91;96247.88;1044944;28;19912;-47
2021/06/15 00:16:19;;;;;;;;;;;;;;;14.46;77.45;96255.44;1042028;28;19916;-46
2021/06/15 00:16:50;;;;;;;;;;;;;;;14.48;76.95;96253.38;1041728;28;20328;-50
2021/06/15 00:17:20;;;;;;;;;;;;;;;14.49;77.09;96254.22;1044087;28;19913;-46
2021/06/15 00:17:51;;;;;;;;;;;;;;;14.46;76.79;96249.34;1043196;28;19909;-47
2021/06/15 00:18:21;;;;;;;;;;;;;;;14.52;76.64;96251.13;1045398;28;19927;-47
2021/06/15 00:18:51;;;;;;;;;;;;;;;14.50;76.41;96250.53;1045146;28;19954;-48
2021/06/15 00:19:21;;;;;;;;;;;;;;;14.46;76.52;96255.44;1045174;28;19909;-47
2021/06/15 00:19:52;;;;;;;;;;;;;;;14.40;76.82;96254.47;1045324;28;19909;-47
2021/06/15 00:20:22;;;;;;;;;;;;;;;14.35;77.26;96256.97;1045145;28;20006;-49
2021/06/15 00:20:53;;;;;;;;;;;;;;;14.39;76.87;96255.53;1042793;28;19909;-47
2021/06/15 00:21:23;;;;;;;;;;;;;;;14.39;77.09;96257.34;1045078;28;19908;-48
2021/06/15 00:21:53;;;;;;;;;;;;;;;14.41;77.24;96255.31;1045226;28;19909;-45
2021/06/15 00:22:24;;;;;;;;;;;;;;;14.35;77.23;96259.63;1043088;28;19917;-45
2021/06/15 00:22:54;;;;;;;;;;;;;;;14.32;77.38;96254.75;1044224;28;19909;-47
2021/06/15 00:23:24;;;;;;;;;;;;;;;14.34;77.36;96265.13;1042108;28;19924;-46
2021/06/15 00:23:54;;;;;;;;;;;;;;;14.33;77.76;96264.34;1041247;28;20024;-45
2021/06/15 00:24:25;;;;;;;;;;;;;;;14.28;77.99;96260.69;1042491;28;19905;-48
2021/06/15 00:24:55;;;;;;;;;;;;;;;14.35;77.31;96266.75;1041283;28;20046;-46
2021/06/15 00:25:26;;;;;;;;;;;;;;;14.33;77.37;96259.03;1045102;28;19912;-47
2021/06/15 00:25:56;;;;;;;;;;;;;;;14.33;77.26;96258.19;1043803;28;20333;-46
2021/06/15 00:26:26;;;;;;;;;;;;;;;14.35;77.33;96262.25;1041283;28;19941;-47
2021/06/15 00:26:57;;;;;;;;;;;;;;;14.34;77.34;96254.53;1043352;28;19984;-45
2021/06/15 00:27:29;;;;;;;;;;;;;;;14.35;77.35;96258.81;1043610;28;20313;-45
2021/06/15 00:28:00;;;;;;;;;;;;;;;14.32;77.33;96265.34;1041086;28;19948;-48
2021/06/15 00:28:30;;;;;;;;;;;;;;;14.37;77.37;96259.41;1041062;28;19905;-45
2021/06/15 00:29:00;;;;;;;;;;;;;;;14.40;77.51;96254.47;1041164;28;20238;-47
2021/06/15 00:29:31;;;;;;;;;;;;;;;14.40;77.13;96262.41;1044908;28;20281;-47
2021/06/15 00:30:01;;;;;;;;;;;;;;;14.38;77.31;96263.69;1044473;28;19912;-48
2021/06/15 00:30:31;;;;;;;;;;;;;;;14.47;76.97;96269.50;1045314;28;20271;-45
2021/06/15 00:31:01;;;;;;;;;;;;;;;14.49;77.17;96254.22;1044946;28;20023;-45
2021/06/15 00:31:34;;;;;;;;;;;;;;;14.49;77.23;96265.63;1045047;28;20276;-46
2021/06/15 00:32:04;;;;;;;;;;;;;;;14.46;76.99;96260.75;1045282;28;19913;-47
2021/06/15 00:32:35;;;;;;;;;;;;;;;14.41;76.90;96255.31;1044669;28;19909;-45
2021/06/15 00:33:05;;;;;;;;;;;;;;;14.43;76.99;96257.72;1045326;28;19958;-45
2021/06/15 00:33:35;;;;;;;;;;;;;;;14.44;77.01;96260.16;1044629;28;20376;-49
2021/06/15 00:34:06;;;;;;;;;;;;;;;14.43;76.82;96258.53;1043324;28;19909;-45
2021/06/15 00:34:36;;;;;;;;;;;;;;;14.50;77.04;96261.94;1045040;28;20315;-47
2021/06/15 00:35:06;;;;;;;;;;;;;;;14.48;76.78;96247.28;1045014;28;19932;-46
2021/06/15 00:35:37;;;;;;;;;;;;;;;14.46;76.39;96254.66;1044506;28;19905;-46
2021/06/15 00:36:07;;;;;;;;;;;;;;;14.42;76.92;96256.09;1040870;28;19912;-46
2021/06/15 00:36:37;;;;;;;;;;;;;;;14.37;76.78;96254.09;1042369;28;19968;-47
2021/06/15 00:37:08;;;;;;;;;;;;;;;14.35;76.96;96256.16;1044862;28;20407;-45
2021/06/15 00:37:38;;;;;;;;;;;;;;;14.35;77.18;96254.31;1045093;28;19967;-45
2021/06/15 00:38:08;;;;;;;;;;;;;;;14.38;76.83;96251.25;1045041;28;19916;-49
2021/06/15 00:38:39;;;;;;;;;;;;;;;14.37;76.92;96248.81;1044917;28;19911;-46
2021/06/15 00:39:09;;;;;;;;;;;;;;;14.33;77.44;96248.44;1043485;28;19915;-44
2021/06/15 00:39:39;;;;;;;;;;;;;;;14.30;77.32;96258.63;1045243;28;19904;-45
2021/06/15 00:40:10;;;;;;;;;;;;;;;14.27;77.96;96256.41;1044898;28;20358;-46
2021/06/15 00:40:40;;;;;;;;;;;;;;;14.26;77.98;96254.81;1043675;28;19999;-46
2021/06/15 00:41:10;;;;;;;;;;;;;;;14.27;77.75;96256.41;1041112;28;19905;-47
2021/06/15 00:41:40;;;;;;;;;;;;;;;14.28;77.79;96264.16;1041389;28;19905;-46
2021/06/15 00:42:11;;;;;;;;;;;;;;;14.18;78.12;96259.34;1041891;28;19995;-50
2021/06/15 00:42:41;;;;;;;;;;;;;;;14.25;78.26;96258.47;1044863;28;20329;-49
2021/06/15 00:43:11;;;;;;;;;;;;;;;14.23;77.74;96258.69;1042725;28;19944;-48
2021/06/15 00:43:42;;;;;;;;;;;;;;;14.28;77.54;96256.19;1040774;28;19911;-45
2021/06/15 00:44:12;;;;;;;;;;;;;;;14.31;77.69;96255.78;1040479;28;19997;-46
2021/06/15 00:44:43;;;;;;;;;;;;;;;14.30;77.77;96264.75;1041199;28;19916;-46
2021/06/15 00:45:14;;;;;;;;;;;;;;;14.27;77.22;96257.25;1041465;28;19913;-48
2021/06/15 00:45:44;;;;;;;;;;;;;;;14.33;77.22;96259.03;1042264;28;20051;-47
2021/06/15 00:46:14;;;;;;;;;;;;;;;14.32;77.02;96259.25;1040805;28;20074;-48
2021/06/15 00:46:45;;;;;;;;;;;;;;;14.32;77.02;96262.69;1040610;28;19952;-46
2021/06/15 00:47:15;;;;;;;;;;;;;;;14.33;77.30;96260.84;1042273;28;19901;-46
2021/06/15 00:47:46;;;;;;;;;;;;;;;14.30;77.80;96263.94;1045034;28;20392;-49
2021/06/15 00:48:24;;;;;;;;;;;;;;;14.33;77.55;96263.50;1041580;28;19974;-46
2021/06/15 00:48:54;;;;;;;;;;;;;;;14.28;77.08;96255.41;1040884;28;19987;-50
2021/06/15 00:49:30;;;;;;;;;;;;;;;14.29;77.14;96260.47;1036524;28;19955;-47
2021/06/15 00:50:03;;;;;;;;;;;;;;;14.32;77.09;96261.91;1040786;28;19909;-48
2021/06/15 00:50:33;;;;;;;;;;;;;;;14.34;77.01;96259.84;1041239;28;19913;-49
2021/06/15 00:51:04;;;;;;;;;;;;;;;14.33;77.10;96258.19;1040785;28;20350;-46
2021/06/15 00:51:35;;;;;;;;;;;;;;;14.32;77.11;96257.41;1040821;28;20000;-48
2021/06/15 00:52:05;;;;;;;;;;;;;;;14.34;77.12;96252.69;1041287;28;19920;-50
2021/06/15 00:52:36;;;;;;;;;;;;;;;14.32;76.81;96252.09;1044912;28;19919;-46
2021/06/15 00:53:06;;;;;;;;;;;;;;;14.29;77.37;96257.03;1041946;28;19936;-47
2021/06/15 00:53:39;;;;;;;;;;;;;;;14.25;77.12;96255.81;1040882;28;19925;-46
2021/06/15 00:54:09;;;;;;;;;;;;;;;14.22;77.54;96252.56;1040043;28;20373;-46
2021/06/15 00:54:40;;;;;;;;;;;;;;;14.26;77.68;96257.47;1040773;28;19916;-45
2021/06/15 00:55:11;;;;;;;;;;;;;;;14.25;77.68;96255.81;1037044;28;20000;-48
2021/06/15 00:55:41;;;;;;;;;;;;;;;14.23;77.50;96253.41;1040873;28;19944;-45
2021/06/15 00:56:11;;;;;;;;;;;;;;;14.20;77.73;96253.81;1041085;28;20404;-47
2021/06/15 00:56:41;;;;;;;;;;;;;;;14.19;77.80;96252.19;1044789;28;20032;-47
2021/06/15 00:57:15;;;;;;;;;;;;;;;14.22;78.03;96251.75;1043308;28;19915;-50
2021/06/15 00:57:45;;;;;;;;;;;;;;;14.25;78.22;96250.53;1044762;28;19969;-48
2021/06/15 00:58:16;;;;;;;;;;;;;;;14.33;78.47;96252.91;1041556;28;20010;-47
2021/06/15 00:58:47;;;;;;;;;;;;;;;14.32;77.66;96248.66;1043074;28;19916;-48
2021/06/15 00:59:18;;;;;;;;;;;;;;;14.26;77.43;96246.88;1040717;28;19909;-50
2021/06/15 00:59:48;;;;;;;;;;;;;;;14.28;77.58;96248.25;1040836;28;19999;-44
2021/06/15 01:00:19;;;;;;;;;;;;;;;14.26;77.39;96249.50;1041611;28;19909;-47
2021/06/15 01:00:49;;;;;;;;;;;;;;;14.22;77.26;96247.28;1045159;28;19904;-47
2021/06/15 01:01:19;;;;;;;;;;;;;;;14.23;77.66;96250.75;1044853;28;19943;-49
2021/06/15 01:01:50;;;;;;;;;;;;;;;14.19;77.48;96245.06;1045326;28;20333;-48
2021/06/15 01:02:20;;;;;;;;;;;;;;;14.20;77.72;96246.69;1045033;28;19960;-46
2021/06/15 01:02:50;;;;;;;;;;;;;;;14.18;77.63;96247.91;1043061;28;21191;-45
2021/06/15 01:03:21;;;;;;;;;;;;;;;14.18;78.10;96246.09;1043103;28;19915;-50
2021/06/15 01:03:51;;;;;;;;;;;;;;;14.14;78.23;96244.09;1036573;28;19910;-47
2021/06/15 01:04:22;;;;;;;;;;;;;;;14.12;78.20;96244.31;1033807;28;19929;-47
2021/06/15 01:04:52;;;;;;;;;;;;;;;14.17;78.05;96241.00;1036424;28;20336;-49
2021/06/15 01:05:22;;;;;;;;;;;;;;;14.18;77.87;96251.41;1040468;28;20377;-47
2021/06/15 01:05:52;;;;;;;;;;;;;;;14.19;77.68;96242.41;1044804;28;19909;-45
2021/06/15 01:06:29;;;;;;;;;;;;;;;14.17;77.68;96246.31;1037100;28;19958;-46
2021/06/15 01:07:06;;;;;;;;;;;;;;;14.14;78.04;96244.91;1033612;28;20277;-46
2021/06/15 01:07:53;;;;;;;;;;;;;;;14.15;78.08;96241.22;1036414;28;19943;-48
2021/06/15 01:08:30;;;;;;;;;;;;;;;14.13;78.18;96242.47;1036261;28;19916;-50
2021/06/15 01:09:02;;;;;;;;;;;;;;;14.14;78.10;96244.09;1040752;28;19909;-48
2021/06/15 01:09:39;;;;;;;;;;;;;;;14.15;78.29;96241.22;1041228;28;20396;-46
2021/06/15 01:10:10;;;;;;;;;;;;;;;14.20;78.22;96237.94;1040947;28;20282;-49
2021/06/15 01:10:40;;;;;;;;;;;;;;;14.21;78.25;96244.84;1040961;28;20288;-46
2021/06/15 01:11:26;;;;;;;;;;;;;;;14.24;78.68;96238.31;1043663;28;19920;-48
2021/06/15 01:12:12;;;;;;;;;;;;;;;14.19;78.35;96239.75;1044900;28;19912;-52
2021/06/15 01:12:58;;;;;;;;;;;;;;;14.27;78.08;96237.88;1042671;28;20251;-50
2021/06/15 01:13:28;;;;;;;;;;;;;;;14.22;77.59;96239.31;1042878;28;19909;-48
2021/06/15 01:14:07;;;;;;;;;;;;;;;14.18;77.84;96237.31;1040963;28;19952;-46
2021/06/15 01:14:50;;;;;;;;;;;;;;;14.16;78.10;96236.75;1043838;28;19908;-46
2021/06/15 01:15:24;;;;;;;;;;;;;;;14.21;77.70;96237.72;1042533;28;19912;-46
2021/06/15 01:16:00;;;;;;;;;;;;;;;14.26;77.74;96231.78;1043101;28;19935;-49
2021/06/15 01:16:50;;;;;;;;;;;;;;;14.26;77.90;96238.91;1040576;28;20242;-48
2021/06/15 01:17:26;;;;;;;;;;;;;;;14.22;77.70;96241.97;1040955;28;19916;-48
2021/06/15 01:17:57;;;;;;;;;;;;;;;14.22;77.63;96243.81;1041011;28;19917;-47
2021/06/15 01:18:28;;;;;;;;;;;;;;;14.19;77.47;96236.31;1042690;28;20423;-46
2021/06/15 01:19:21;;;;;;;;;;;;;;;14.17;77.72;96233.88;1040651;28;19978;-46
2021/06/15 01:19:54;;;;;;;;;;;;;;;14.19;78.07;96237.09;1035288;28;19909;-46
2021/06/15 01:20:28;;;;;;;;;;;;;;;14.14;78.28;96236.16;1039424;28;20307;-47
2021/06/15 01:21:06;;;;;;;;;;;;;;;14.10;78.36;96234.94;1042933;28;19909;-47
2021/06/15 01:21:38;;;;;;;;;;;;;;;14.02;78.53;96236.81;1044563;28;19910;-46
2021/06/15 01:22:32;;;;;;;;;;;;;;;14.09;78.80;96236.78;1043412;28;20362;-46
2021/06/15 01:23:02;;;;;;;;;;;;;;;14.10;78.13;96235.75;1040660;28;19939;-46
2021/06/15 01:23:51;;;;;;;;;;;;;;;14.10;78.32;96230.44;1041311;28;19963;-45
2021/06/15 01:24:25;;;;;;;;;;;;;;;14.12;77.95;96233.72;1043661;28;20344;-45
2021/06/15 01:24:58;;;;;;;;;;;;;;;14.13;78.27;96230.03;1044731;28;19908;-46
2021/06/15 01:25:47;;;;;;;;;;;;;;;14.12;78.22;96233.72;1044099;28;19909;-46
2021/06/15 01:26:17;;;;;;;;;;;;;;;14.08;78.54;96229.06;1040953;28;20000;-46
2021/06/15 01:26:54;;;;;;;;;;;;;;;14.05;78.40;96235.59;1040739;28;19916;-46
2021/06/15 01:27:30;;;;;;;;;;;;;;;14.07;78.41;96233.53;1041331;28;20267;-46
2021/06/15 01:28:01;;;;;;;;;;;;;;;14.08;78.51;96235.16;1041110;28;20286;-45
2021/06/15 01:28:47;;;;;;;;;;;;;;;14.14;78.81;96233.50;1040670;28;19945;-45
2021/06/15 01:29:19;;;;;;;;;;;;;;;14.04;78.84;96234.78;1040436;28;19916;-45
2021/06/15 01:29:49;;;;;;;;;;;;;;;14.11;78.43;96233.94;1040472;28;19908;-45
2021/06/15 01:30:23;;;;;;;;;;;;;;;14.10;78.31;96234.94;1040601;28;19913;-46
2021/06/15 01:31:12;;;;;;;;;;;;;;;14.12;78.31;96235.53;1037876;28;19909;-46
2021/06/15 01:31:49;;;;;;;;;;;;;;;14.11;78.09;96234.72;1037329;28;19913;-46
2021/06/15 01:32:22;;;;;;;;;;;;;;;14.13;77.99;96230.03;1040994;28;19913;-45
2021/06/15 01:32:54;;;;;;;;;;;;;;;14.13;77.57;96232.66;1044391;28;20261;-46
2021/06/15 01:33:25;;;;;;;;;;;;;;;14.14;77.79;96230.84;1036584;28;19909;-45
2021/06/15 01:33:56;;;;;;;;;;;;;;;14.13;77.79;96229.22;1037388;28;19909;-47
2021/06/15 01:34:31;;;;;;;;;;;;;;;14.11;78.11;96240.03;1044611;28;20321;-45
2021/06/15 01:35:02;;;;;;;;;;;;;;;14.13;78.31;96231.88;1040782;28;19913;-46
2021/06/15 01:35:33;;;;;;;;;;;;;;;14.13;78.38;96237.16;1040755;28;20318;-46
2021/06/15 01:36:03;;;;;;;;;;;;;;;14.12;78.20;96225.78;1041503;28;19947;-46
2021/06/15 01:36:37;;;;;;;;;;;;;;;14.12;78.87;96231.06;1042085;28;19909;-45
2021/06/15 01:37:12;;;;;;;;;;;;;;;14.07;78.56;96230.88;1041051;28;19955;-46
2021/06/15 01:37:43;;;;;;;;;;;;;;;14.00;78.99;96230.94;1040532;28;20318;-45
2021/06/15 01:38:14;;;;;;;;;;;;;;;14.00;79.39;96230.13;1040329;28;19917;-46
2021/06/15 01:38:47;;;;;;;;;;;;;;;13.97;79.36;96227.91;1038451;28;19917;-46
2021/06/15 01:39:21;;;;;;;;;;;;;;;13.99;79.42;96231.16;1043630;28;19916;-45
2021/06/15 01:39:51;;;;;;;;;;;;;;;13.95;79.54;96237.88;1041496;28;19924;-47
2021/06/15 01:40:23;;;;;;;;;;;;;;;13.95;79.76;96237.88;1043009;28;20399;-46
2021/06/15 01:41:19;;;;;;;;;;;;;;;13.91;79.97;96236.69;1041371;28;19909;-46
2021/06/15 01:42:03;;;;;;;;;;;;;;;13.88;80.00;96239.75;1032544;28;19953;-45
2021/06/15 01:42:35;;;;;;;;;;;;;;;13.82;80.01;96233.50;1039130;28;19920;-44
2021/06/15 01:43:08;;;;;;;;;;;;;;;13.79;80.73;96237.38;1043805;28;19916;-44
2021/06/15 01:43:43;;;;;;;;;;;;;;;13.81;80.52;96239.81;1044794;28;19913;-44
2021/06/15 01:44:13;;;;;;;;;;;;;;;13.79;80.64;96237.38;1043026;28;19924;-47
2021/06/15 01:44:44;;;;;;;;;;;;;;;13.79;80.74;96236.56;1042295;28;19909;-44
2021/06/15 01:45:19;;;;;;;;;;;;;;;13.82;80.84;96238.78;1040974;28;19920;-46
2021/06/15 01:45:51;;;;;;;;;;;;;;;13.82;80.83;96236.16;1041052;28;19909;-44
2021/06/15 01:46:23;;;;;;;;;;;;;;;13.78;80.68;96232.31;1043699;28;20015;-46
2021/06/15 01:46:56;;;;;;;;;;;;;;;13.81;80.34;96243.25;1044672;28;19913;-45
2021/06/15 01:47:26;;;;;;;;;;;;;;;13.81;80.45;96237.97;1044962;28;19908;-45
2021/06/15 01:48:05;;;;;;;;;;;;;;;13.78;80.40;96235.75;1044143;28;19996;-46
2021/06/15 01:48:35;;;;;;;;;;;;;;;13.78;80.47;96238.38;1041048;28;20306;-46
2021/06/15 01:49:08;;;;;;;;;;;;;;;13.78;80.45;96238.38;1042479;28;19968;-45
2021/06/15 01:49:52;;;;;;;;;;;;;;;13.81;80.21;96230.03;1042154;28;20281;-45
2021/06/15 01:50:22;;;;;;;;;;;;;;;13.82;80.10;96238.78;1040497;28;19908;-45
2021/06/15 01:50:53;;;;;;;;;;;;;;;13.79;80.38;96232.09;1040411;28;19936;-44
2021/06/15 01:51:23;;;;;;;;;;;;;;;13.79;80.65;96232.09;1043901;28;19991;-45
2021/06/15 01:51:53;;;;;;;;;;;;;;;13.78;80.33;96235.75;1044495;28;19915;-45
2021/06/15 01:52:26;;;;;;;;;;;;;;;13.83;80.34;96233.28;1042937;28;19959;-45
2021/06/15 01:52:57;;;;;;;;;;;;;;;13.82;80.22;96223.72;1041786;28;19917;-46
2021/06/15 01:53:27;;;;;;;;;;;;;;;13.80;80.30;96228.44;1040584;28;19909;-46
2021/06/15 01:53:59;;;;;;;;;;;;;;;13.80;80.49;96238.19;1040616;28;19913;-47
2021/06/15 01:54:29;;;;;;;;;;;;;;;13.80;80.59;96228.44;1040432;28;19916;-45
2021/06/15 01:55:00;;;;;;;;;;;;;;;13.81;80.72;96227.38;1040617;28;19909;-45
2021/06/15 01:55:30;;;;;;;;;;;;;;;13.82;80.66;96229.00;1036506;28;20321;-45
2021/06/15 01:56:03;;;;;;;;;;;;;;;13.84;80.72;96232.25;1036657;28;20366;-45
2021/06/15 01:56:34;;;;;;;;;;;;;;;13.86;80.39;96221.44;1040499;28;19919;-45
2021/06/15 01:57:04;;;;;;;;;;;;;;;13.84;80.52;96229.59;1041009;28;19916;-45
2021/06/15 01:57:35;;;;;;;;;;;;;;;13.81;80.58;96230.03;1037473;28;19914;-47
2021/06/15 01:58:05;;;;;;;;;;;;;;;13.80;80.11;96227.59;1036602;28;19909;-45
2021/06/15 01:58:36;;;;;;;;;;;;;;;13.78;80.31;96229.66;1039824;28;19973;-46
2021/06/15 01:59:10;;;;;;;;;;;;;;;13.79;80.17;96229.44;1037702;28;19920;-46
2021/06/15 01:59:42;;;;;;;;;;;;;;;13.73;80.73;96225.00;1036381;28;19956;-45
2021/06/15 02:00:12;;;;;;;;;;;;;;;13.67;80.72;96231.94;1039464;28;19909;-45
2021/06/15 02:00:42;;;;;;;;;;;;;;;13.66;80.80;96230.34;1040746;28;19908;-46
2021/06/15 02:01:14;;;;;;;;;;;;;;;13.64;80.89;96226.28;1040164;28;19963;-45
2021/06/15 02:01:45;;;;;;;;;;;;;;;13.62;80.61;96237.06;1041270;28;20066;-46
2021/06/15 02:02:16;;;;;;;;;;;;;;;13.60;80.65;96238.28;1041890;28;20045;-46
2021/06/15 02:02:47;;;;;;;;;;;;;;;13.57;80.84;96233.44;1041875;28;19913;-45
2021/06/15 02:03:17;;;;;;;;;;;;;;;13.51;80.70;96235.06;1041817;28;19909;-45
2021/06/15 02:03:48;;;;;;;;;;;;;;;13.50;81.08;96231.63;1044566;28;19908;-45
2021/06/15 02:04:18;;;;;;;;;;;;;;;13.49;81.19;96240.56;1042448;28;19917;-45
2021/06/15 02:04:49;;;;;;;;;;;;;;;13.43;81.42;96237.97;1044636;28;19955;-45
2021/06/15 02:05:21;;;;;;;;;;;;;;;13.43;81.56;96232.69;1039958;28;19911;-45
2021/06/15 02:05:52;;;;;;;;;;;;;;;13.42;81.34;96231.03;1034396;28;19913;-45
2021/06/15 02:06:24;;;;;;;;;;;;;;;13.36;81.50;96238.00;1032388;28;19917;-46
2021/06/15 02:06:54;;;;;;;;;;;;;;;13.32;81.59;96232.28;1031410;28;20363;-46
2021/06/15 02:07:26;;;;;;;;;;;;;;;13.33;81.74;96230.47;1032653;28;19902;-45
2021/06/15 02:07:57;;;;;;;;;;;;;;;13.35;81.79;96231.09;1036844;28;20003;-46
2021/06/15 02:08:38;;;;;;;;;;;;;;;13.37;81.92;96229.03;1038069;28;19943;-47
2021/06/15 02:09:08;;;;;;;;;;;;;;;13.38;81.43;96233.31;1038667;28;20376;-46
2021/06/15 02:09:39;;;;;;;;;;;;;;;13.37;81.31;96231.69;1032289;28;19972;-47
2021/06/15 02:10:10;;;;;;;;;;;;;;;13.37;81.41;96223.75;1032475;28;19961;-46
2021/06/15 02:10:40;;;;;;;;;;;;;;;13.37;81.06;96229.03;1031261;28;19909;-46
2021/06/15 02:11:11;;;;;;;;;;;;;;;13.36;80.97;96232.72;1028719;28;19914;-47
2021/06/15 02:11:41;;;;;;;;;;;;;;;13.37;81.17;96233.53;1029435;28;19916;-45
2021/06/15 02:12:12;;;;;;;;;;;;;;;13.36;80.90;96232.72;1034855;28;20285;-47
2021/06/15 02:12:44;;;;;;;;;;;;;;;13.34;81.35;96229.44;1032707;28;19910;-45
2021/06/15 02:13:14;;;;;;;;;;;;;;;13.30;81.59;96230.84;1029684;28;19918;-45
2021/06/15 02:13:45;;;;;;;;;;;;;;;13.26;81.52;96227.03;1031690;28;19989;-46
2021/06/15 02:14:18;;;;;;;;;;;;;;;13.25;81.80;96223.56;1026390;28;19925;-45
2021/06/15 02:14:48;;;;;;;;;;;;;;;13.20;81.96;96228.66;1029240;28;19957;-46
2021/06/15 02:15:18;;;;;;;;;;;;;;;13.21;82.26;96232.09;1036207;28;20079;-45
2021/06/15 02:15:49;;;;;;;;;;;;;;;13.21;82.40;96226.81;1040767;28;19901;-45
2021/06/15 02:16:19;;;;;;;;;;;;;;;13.16;82.14;96222.16;1040221;28;19955;-45
2021/06/15 02:16:51;;;;;;;;;;;;;;;13.17;82.35;96231.72;1040158;28;20400;-44
2021/06/15 02:17:22;;;;;;;;;;;;;;;13.18;82.53;96224.59;1042897;28;20054;-46
2021/06/15 02:17:53;;;;;;;;;;;;;;;13.18;82.42;96232.53;1040541;28;19916;-46
2021/06/15 02:18:23;;;;;;;;;;;;;;;13.22;82.30;96231.09;1040590;28;19971;-45
2021/06/15 02:18:54;;;;;;;;;;;;;;;13.22;82.00;96225.81;1036887;28;20302;-45
2021/06/15 02:19:25;;;;;;;;;;;;;;;13.18;82.43;96230.72;1039502;28;20369;-46
2021/06/15 02:19:55;;;;;;;;;;;;;;;13.20;82.32;96225.22;1042003;28;19900;-45
2021/06/15 02:20:30;;;;;;;;;;;;;;;13.15;82.61;96231.94;1036601;28;19917;-45
2021/06/15 02:21:01;;;;;;;;;;;;;;;13.11;82.78;96230.72;1032421;28;19910;-45
2021/06/15 02:21:31;;;;;;;;;;;;;;;13.14;83.34;96227.66;1030188;28;20105;-45
2021/06/15 02:22:04;;;;;;;;;;;;;;;13.11;83.65;96227.28;1032884;28;19910;-46
2021/06/15 02:22:35;;;;;;;;;;;;;;;13.08;83.35;96225.06;1032062;28;20327;-46
2021/06/15 02:23:05;;;;;;;;;;;;;;;13.05;83.35;96231.56;1031477;28;19916;-46
2021/06/15 02:23:35;;;;;;;;;;;;;;;13.06;83.56;96227.91;1028819;28;20102;-46
2021/06/15 02:24:06;;;;;;;;;;;;;;;13.06;83.33;96227.91;1035486;28;19909;-45
2021/06/15 02:24:46;;;;;;;;;;;;;;;13.03;83.77;96222.22;1038025;28;19909;-44
2021/06/15 02:25:21;;;;;;;;;;;;;;;13.11;83.96;96229.91;1033692;28;20027;-45
2021/06/15 02:25:52;;;;;;;;;;;;;;;13.07;83.47;96229.53;1040420;28;19909;-45
2021/06/15 02:26:23;;;;;;;;;;;;;;;13.07;83.40;96228.69;1036314;28;19913;-45
2021/06/15 02:26:54;;;;;;;;;;;;;;;13.06;83.72;96230.53;1037293;28;20003;-45
2021/06/15 02:27:24;;;;;;;;;;;;;;;13.04;83.51;96229.13;1042421;28;19905;-45
2021/06/15 02:27:54;;;;;;;;;;;;;;;13.02;83.92;96231.16;1043558;28;20302;-47
2021/06/15 02:28:25;;;;;;;;;;;;;;;13.01;83.82;96224.25;1040876;28;19909;-45
2021/06/15 02:28:55;;;;;;;;;;;;;;;13.01;83.66;96234.81;1040551;28;20054;-47
2021/06/15 02:29:26;;;;;;;;;;;;;;;13.06;83.50;96225.25;1040538;28;19940;-46
2021/06/15 02:29:56;;;;;;;;;;;;;;;13.14;83.58;96235.59;1044455;28;20398;-45
2021/06/15 02:30:27;;;;;;;;;;;;;;;13.11;83.04;96233.38;1044272;28;19901;-45
2021/06/15 02:30:57;;;;;;;;;;;;;;;13.15;82.72;96226.66;1044712;28;19936;-46
2021/06/15 02:31:29;;;;;;;;;;;;;;;13.15;83.10;96236.41;1040262;28;20311;-46
2021/06/15 02:32:00;;;;;;;;;;;;;;;13.16;82.55;96230.09;1044459;28;19908;-46
2021/06/15 02:32:31;;;;;;;;;;;;;;;13.17;82.30;96238.84;1040544;28;19975;-46
2021/06/15 02:33:11;;;;;;;;;;;;;;;13.10;82.53;96229.13;1035807;28;19929;-47
2021/06/15 02:33:44;;;;;;;;;;;;;;;13.12;82.51;96237.63;1036050;28;19925;-47
2021/06/15 02:34:15;;;;;;;;;;;;;;;13.09;82.59;96232.78;1033759;28;19902;-46
2021/06/15 02:34:46;;;;;;;;;;;;;;;13.08;82.58;96231.13;1039493;28;19948;-45
2021/06/15 02:35:17;;;;;;;;;;;;;;;13.06;83.14;96233.19;1038923;28;19968;-46
2021/06/15 02:35:51;;;;;;;;;;;;;;;13.05;83.25;96228.91;1036091;28;19994;-46
2021/06/15 02:36:22;;;;;;;;;;;;;;;13.02;83.46;96228.53;1036110;28;19902;-46
2021/06/15 02:36:53;;;;;;;;;;;;;;;13.00;83.45;96234.03;1032827;28;19949;-45
2021/06/15 02:37:26;;;;;;;;;;;;;;;12.93;83.26;96236.66;1036337;28;19928;-46
2021/06/15 02:37:59;;;;;;;;;;;;;;;12.90;83.57;96238.91;1038673;28;19977;-45
2021/06/15 02:38:30;;;;;;;;;;;;;;;12.87;83.71;96228.75;1041978;28;19912;-48
2021/06/15 02:39:01;;;;;;;;;;;;;;;12.83;83.71;96236.31;1040539;28;19901;-45
2021/06/15 02:39:32;;;;;;;;;;;;;;;12.84;83.89;96234.47;1042542;28;19901;-46
2021/06/15 02:40:03;;;;;;;;;;;;;;;12.86;83.95;96237.69;1044198;28;19905;-46
2021/06/15 02:40:33;;;;;;;;;;;;;;;12.85;83.84;96230.81;1040364;28;19908;-46
2021/06/15 02:41:04;;;;;;;;;;;;;;;12.84;84.06;96237.09;1042431;28;19913;-46
2021/06/15 02:41:36;;;;;;;;;;;;;;;12.86;83.86;96232.41;1045412;28;20380;-45
2021/06/15 02:42:07;;;;;;;;;;;;;;;12.85;83.82;96239.53;1044584;28;19932;-46
2021/06/15 02:42:41;;;;;;;;;;;;;;;12.88;83.47;96235.69;1045012;28;19901;-46
2021/06/15 02:43:12;;;;;;;;;;;;;;;12.86;83.86;96232.41;1041324;28;19929;-46
2021/06/15 02:43:42;;;;;;;;;;;;;;;12.87;84.18;96234.03;1042257;28;19905;-45
2021/06/15 02:44:18;;;;;;;;;;;;;;;12.86;83.79;96235.88;1041143;28;19920;-46
2021/06/15 02:44:48;;;;;;;;;;;;;;;12.88;84.00;96233.84;1045406;28;19947;-47
2021/06/15 02:45:18;;;;;;;;;;;;;;;12.78;83.91;96230.81;1044012;28;20353;-46
2021/06/15 02:45:49;;;;;;;;;;;;;;;12.83;83.72;96232.81;1043718;28;19959;-49
2021/06/15 02:46:19;;;;;;;;;;;;;;;12.88;83.85;96233.03;1037131;28;20334;-49
2021/06/15 02:46:50;;;;;;;;;;;;;;;12.89;83.99;96234.63;1037123;28;19952;-45
2021/06/15 02:47:20;;;;;;;;;;;;;;;12.87;83.66;96234.03;1038945;28;19909;-47